sensor_id;sensor_type;location;lat;lon;timestamp;pressure;altitude;pressure_sealevel;temperature;humidity
9139;BME280;4604;48.616;9.548;2023-02-11T00:02:15;98894.44;;;-2.42;84.11
9139;BME280;4604;48.616;9.548;2023-02-11T00:04:42;98888.38;;;-2.39;83.83
9139;BME280;4604;48.616;9.548;2023-02-11T00:07:08;98895.19;;;-2.27;82.95
9139;BME280;4604;48.616;9.548;2023-02-11T00:09:36;98904.59;;;-2.14;81.86
9139;BME280;4604;48.616;9.548;2023-02-11T00:12:03;98907.16;;;-2.09;81.71
9139;BME280;4604;48.616;9.548;2023-02-11T00:14:30;98902.84;;;-2.09;81.88
9139;BME280;4604;48.616;9.548;2023-02-11T00:16:58;98895.97;;;-2.13;81.73
9139;BME280;4604;48.616;9.548;2023-02-11T00:19:25;98897.72;;;-2.18;81.88
9139;BME280;4604;48.616;9.548;2023-02-11T00:21:51;98886.59;;;-2.26;81.82
9139;BME280;4604;48.616;9.548;2023-02-11T00:24:18;98897.00;;;-2.34;82.00
9139;BME280;4604;48.616;9.548;2023-02-11T00:26:44;98904.81;;;-2.45;82.50
9139;BME280;4604;48.616;9.548;2023-02-11T00:29:11;98903.13;;;-2.50;82.05
9139;BME280;4604;48.616;9.548;2023-02-11T00:31:37;98906.63;;;-2.58;82.49
9139;BME280;4604;48.616;9.548;2023-02-11T00:34:06;98911.81;;;-2.61;82.91
9139;BME280;4604;48.616;9.548;2023-02-11T00:36:32;98902.34;;;-2.63;83.13
9139;BME280;4604;48.616;9.548;2023-02-11T00:38:59;98904.09;;;-2.68;82.93
9139;BME280;4604;48.616;9.548;2023-02-11T00:41:26;98907.53;;;-2.71;83.58
9139;BME280;4604;48.616;9.548;2023-02-11T00:43:52;98894.69;;;-2.75;83.36
9139;BME280;4604;48.616;9.548;2023-02-11T00:46:19;98886.06;;;-2.79;83.47
9139;BME280;4604;48.616;9.548;2023-02-11T00:48:46;98874.03;;;-2.82;83.43
9139;BME280;4604;48.616;9.548;2023-02-11T00:51:14;98876.66;;;-2.88;83.44
9139;BME280;4604;48.616;9.548;2023-02-11T00:53:41;98874.06;;;-2.91;84.35
9139;BME280;4604;48.616;9.548;2023-02-11T00:56:08;98870.63;;;-2.90;84.82
9139;BME280;4604;48.616;9.548;2023-02-11T00:58:35;98881.81;;;-2.89;85.33
9139;BME280;4604;48.616;9.548;2023-02-11T01:01:02;98869.75;;;-2.89;85.28
9139;BME280;4604;48.616;9.548;2023-02-11T01:03:29;98874.06;;;-2.91;85.41
9139;BME280;4604;48.616;9.548;2023-02-11T01:05:56;98862.88;;;-2.93;85.96
9139;BME280;4604;48.616;9.548;2023-02-11T01:08:25;98858.59;;;-2.92;85.66
9139;BME280;4604;48.616;9.548;2023-02-11T01:10:55;98839.66;;;-2.96;85.74
9139;BME280;4604;48.616;9.548;2023-02-11T01:13:23;98847.28;;;-2.76;85.25
9139;BME280;4604;48.616;9.548;2023-02-11T01:15:50;98861.91;;;-2.70;85.66
9139;BME280;4604;48.616;9.548;2023-02-11T01:18:17;98838.66;;;-2.70;85.60
9139;BME280;4604;48.616;9.548;2023-02-11T01:20:43;98842.94;;;-2.69;85.20
9139;BME280;4604;48.616;9.548;2023-02-11T01:23:10;98848.13;;;-2.72;85.21
9139;BME280;4604;48.616;9.548;2023-02-11T01:25:38;98826.59;;;-2.76;85.63
9139;BME280;4604;48.616;9.548;2023-02-11T01:28:05;98830.09;;;-2.83;86.14
9139;BME280;4604;48.616;9.548;2023-02-11T01:30:32;98824.09;;;-2.85;86.39
9139;BME280;4604;48.616;9.548;2023-02-11T01:32:58;98830.13;;;-2.86;86.25
9139;BME280;4604;48.616;9.548;2023-02-11T01:35:25;98819.75;;;-2.83;86.35
9139;BME280;4604;48.616;9.548;2023-02-11T01:37:52;98812.03;;;-2.80;85.94
9139;BME280;4604;48.616;9.548;2023-02-11T01:40:18;98811.13;;;-2.81;86.23
9139;BME280;4604;48.616;9.548;2023-02-11T01:42:46;98804.22;;;-2.78;86.23
9139;BME280;4604;48.616;9.548;2023-02-11T01:45:47;98804.25;;;-2.77;86.29
9139;BME280;4604;48.616;9.548;2023-02-11T01:48:21;98800.81;;;-2.81;86.13
9139;BME280;4604;48.616;9.548;2023-02-11T01:50:52;98791.31;;;-2.77;86.01
9139;BME280;4604;48.616;9.548;2023-02-11T01:53:20;98796.47;;;-2.75;86.15
9139;BME280;4604;48.616;9.548;2023-02-11T01:56:05;98799.03;;;-2.74;86.36
9139;BME280;4604;48.616;9.548;2023-02-11T01:58:54;98802.47;;;-2.73;86.33
9139;BME280;4604;48.616;9.548;2023-02-11T02:01:25;98796.47;;;-2.77;86.18
9139;BME280;4604;48.616;9.548;2023-02-11T02:03:56;98800.78;;;-2.73;86.13
9139;BME280;4604;48.616;9.548;2023-02-11T02:06:29;98793.94;;;-2.83;86.23
9139;BME280;4604;48.616;9.548;2023-02-11T02:09:02;98802.50;;;-2.76;86.13
9139;BME280;4604;48.616;9.548;2023-02-11T02:11:30;98797.38;;;-2.81;86.46
9139;BME280;4604;48.616;9.548;2023-02-11T02:13:58;98805.09;;;-2.78;86.42
9139;BME280;4604;48.616;9.548;2023-02-11T02:16:29;98812.75;;;-2.63;86.07
9139;BME280;4604;48.616;9.548;2023-02-11T02:19:09;98811.81;;;-2.52;85.82
9139;BME280;4604;48.616;9.548;2023-02-11T02:24:56;98812.59;;;-2.43;83.97
9139;BME280;4604;48.616;9.548;2023-02-11T02:27:36;98803.22;;;-2.56;84.75
9139;BME280;4604;48.616;9.548;2023-02-11T02:33:33;98793.03;;;-2.73;86.64
9139;BME280;4604;48.616;9.548;2023-02-11T02:36:11;98783.50;;;-2.71;86.96
9139;BME280;4604;48.616;9.548;2023-02-11T02:38:47;98784.38;;;-2.73;86.51
9139;BME280;4604;48.616;9.548;2023-02-11T02:41:18;98787.03;;;-2.80;86.51
9139;BME280;4604;48.616;9.548;2023-02-11T02:43:48;98790.53;;;-2.88;86.59
9139;BME280;4604;48.616;9.548;2023-02-11T02:46:17;98791.41;;;-2.91;86.99
9139;BME280;4604;48.616;9.548;2023-02-11T02:48:47;98786.22;;;-2.91;87.20
9139;BME280;4604;48.616;9.548;2023-02-11T02:51:33;98783.69;;;-2.92;87.49
9139;BME280;4604;48.616;9.548;2023-02-11T02:54:17;98794.84;;;-2.89;87.63
9139;BME280;4604;48.616;9.548;2023-02-11T02:56:53;98790.56;;;-2.91;87.51
9139;BME280;4604;48.616;9.548;2023-02-11T02:59:32;98788.81;;;-2.88;87.69
9139;BME280;4604;48.616;9.548;2023-02-11T03:02:10;98778.47;;;-2.86;88.02
9139;BME280;4604;48.616;9.548;2023-02-11T03:04:45;98771.59;;;-2.87;87.63
9139;BME280;4604;48.616;9.548;2023-02-11T03:07:20;98775.84;;;-2.83;88.10
9139;BME280;4604;48.616;9.548;2023-02-11T03:09:51;98762.97;;;-2.85;88.62
9139;BME280;4604;48.616;9.548;2023-02-11T03:12:20;98755.22;;;-2.88;88.63
9139;BME280;4604;48.616;9.548;2023-02-11T03:14:50;98736.31;;;-2.90;88.96
9139;BME280;4604;48.616;9.548;2023-02-11T03:17:17;98736.28;;;-2.87;89.49
9139;BME280;4604;48.616;9.548;2023-02-11T03:19:47;98741.38;;;-2.81;89.82
9139;BME280;4604;48.616;9.548;2023-02-11T03:22:18;98743.16;;;-2.87;90.25
9139;BME280;4604;48.616;9.548;2023-02-11T03:24:47;98749.97;;;-2.78;90.12
9139;BME280;4604;48.616;9.548;2023-02-11T03:27:17;98740.41;;;-2.69;90.28
9139;BME280;4604;48.616;9.548;2023-02-11T03:29:50;98743.81;;;-2.64;90.17
9139;BME280;4604;48.616;9.548;2023-02-11T03:32:23;98738.66;;;-2.62;90.18
9139;BME280;4604;48.616;9.548;2023-02-11T03:34:54;98741.19;;;-2.56;90.40
9139;BME280;4604;48.616;9.548;2023-02-11T03:37:26;98739.47;;;-2.55;90.36
9139;BME280;4604;48.616;9.548;2023-02-11T03:40:00;98739.44;;;-2.54;90.61
9139;BME280;4604;48.616;9.548;2023-02-11T03:42:31;98740.28;;;-2.50;90.61
9139;BME280;4604;48.616;9.548;2023-02-11T03:45:04;98738.53;;;-2.48;90.29
9139;BME280;4604;48.616;9.548;2023-02-11T03:47:34;98741.09;;;-2.47;90.44
9139;BME280;4604;48.616;9.548;2023-02-11T03:50:07;98733.38;;;-2.50;90.92
9139;BME280;4604;48.616;9.548;2023-02-11T03:52:37;98750.59;;;-2.49;91.12
9139;BME280;4604;48.616;9.548;2023-02-11T03:55:06;98758.38;;;-2.52;91.24
9139;BME280;4604;48.616;9.548;2023-02-11T03:57:34;98756.50;;;-2.34;91.36
9139;BME280;4604;48.616;9.548;2023-02-11T04:00:01;98760.84;;;-2.38;91.77
9139;BME280;4604;48.616;9.548;2023-02-11T04:02:30;98762.53;;;-2.35;91.91
9139;BME280;4604;48.616;9.548;2023-02-11T04:04:57;98763.34;;;-2.32;92.36
9139;BME280;4604;48.616;9.548;2023-02-11T04:07:26;98761.59;;;-2.27;91.76
9139;BME280;4604;48.616;9.548;2023-02-11T04:09:53;98766.72;;;-2.22;91.90
9139;BME280;4604;48.616;9.548;2023-02-11T04:12:19;98773.59;;;-2.20;91.82
9139;BME280;4604;48.616;9.548;2023-02-11T04:14:46;98778.72;;;-2.12;91.99
9139;BME280;4604;48.616;9.548;2023-02-11T04:17:13;98773.47;;;-2.07;91.92
9139;BME280;4604;48.616;9.548;2023-02-11T04:19:39;98793.22;;;-2.00;91.16
9139;BME280;4604;48.616;9.548;2023-02-11T04:22:06;98781.19;;;-2.03;91.27
9139;BME280;4604;48.616;9.548;2023-02-11T04:24:35;98784.47;;;-1.88;91.01
9139;BME280;4604;48.616;9.548;2023-02-11T04:27:02;98781.94;;;-1.90;90.38
9139;BME280;4604;48.616;9.548;2023-02-11T04:29:28;98777.56;;;-1.86;90.69
9139;BME280;4604;48.616;9.548;2023-02-11T04:31:56;98774.97;;;-1.88;90.84
9139;BME280;4604;48.616;9.548;2023-02-11T04:34:23;98780.13;;;-1.83;90.82
9139;BME280;4604;48.616;9.548;2023-02-11T04:36:49;98779.25;;;-1.82;91.13
9139;BME280;4604;48.616;9.548;2023-02-11T04:39:16;98782.69;;;-1.82;91.42
9139;BME280;4604;48.616;9.548;2023-02-11T04:41:44;98774.00;;;-1.76;91.61
9139;BME280;4604;48.616;9.548;2023-02-11T04:44:11;98774.84;;;-1.76;91.78
9139;BME280;4604;48.616;9.548;2023-02-11T04:46:38;98780.00;;;-1.74;91.85
9139;BME280;4604;48.616;9.548;2023-02-11T04:49:04;98779.09;;;-1.68;92.33
9139;BME280;4604;48.616;9.548;2023-02-11T04:51:31;98786.84;;;-1.65;92.32
9139;BME280;4604;48.616;9.548;2023-02-11T04:53:57;98785.09;;;-1.63;92.50
9139;BME280;4604;48.616;9.548;2023-02-11T04:56:24;98708.78;;;-2.07;93.09
9139;BME280;4604;48.616;9.548;2023-02-11T04:58:52;98777.34;;;-1.65;93.29
9139;BME280;4604;48.616;9.548;2023-02-11T05:01:19;98749.84;;;-1.77;93.11
9139;BME280;4604;48.616;9.548;2023-02-11T05:03:45;98779.78;;;-1.53;93.47
9139;BME280;4604;48.616;9.548;2023-02-11T05:06:12;98764.25;;;-1.53;93.53
9139;BME280;4604;48.616;9.548;2023-02-11T05:08:38;98755.53;;;-1.47;93.43
9139;BME280;4604;48.616;9.548;2023-02-11T05:11:06;98752.03;;;-1.43;93.06
9139;BME280;4604;48.616;9.548;2023-02-11T05:13:33;98755.47;;;-1.41;93.12
9139;BME280;4604;48.616;9.548;2023-02-11T05:16:01;98721.97;;;-1.53;92.79
9139;BME280;4604;48.616;9.548;2023-02-11T05:18:27;98740.72;;;-1.36;93.01
9139;BME280;4604;48.616;9.548;2023-02-11T05:20:54;98742.41;;;-1.33;93.29
9139;BME280;4604;48.616;9.548;2023-02-11T05:23:21;98732.06;;;-1.35;93.47
9139;BME280;4604;48.616;9.548;2023-02-11T05:25:47;98726.88;;;-1.33;94.14
9139;BME280;4604;48.616;9.548;2023-02-11T05:28:14;98719.81;;;-1.23;94.41
9139;BME280;4604;48.616;9.548;2023-02-11T05:30:40;98708.53;;;-1.19;94.35
9139;BME280;4604;48.616;9.548;2023-02-11T05:33:08;98712.84;;;-1.18;94.70
9139;BME280;4604;48.616;9.548;2023-02-11T05:35:35;98690.34;;;-1.16;94.71
9139;BME280;4604;48.616;9.548;2023-02-11T05:38:02;98687.59;;;-1.05;94.41
9139;BME280;4604;48.616;9.548;2023-02-11T05:40:28;98687.53;;;-1.01;94.13
9139;BME280;4604;48.616;9.548;2023-02-11T05:42:55;98683.97;;;-0.95;93.97
9139;BME280;4604;48.616;9.548;2023-02-11T05:45:21;98685.63;;;-0.90;93.69
9139;BME280;4604;48.616;9.548;2023-02-11T05:47:48;98678.69;;;-0.89;93.32
9139;BME280;4604;48.616;9.548;2023-02-11T05:50:16;98688.94;;;-0.83;93.10
9139;BME280;4604;48.616;9.548;2023-02-11T05:52:43;98692.44;;;-0.82;93.42
9139;BME280;4604;48.616;9.548;2023-02-11T05:55:09;98689.56;;;-0.66;93.47
9139;BME280;4604;48.616;9.548;2023-02-11T05:57:36;98689.28;;;-0.50;92.29
9139;BME280;4604;48.616;9.548;2023-02-11T06:00:04;98694.81;;;-0.70;93.41
9139;BME280;4604;48.616;9.548;2023-02-11T06:02:31;98701.47;;;-0.55;90.42
9139;BME280;4604;48.616;9.548;2023-02-11T06:04:58;98702.72;;;-0.78;91.62
9139;BME280;4604;48.616;9.548;2023-02-11T06:07:25;98699.81;;;-0.59;90.26
9139;BME280;4604;48.616;9.548;2023-02-11T06:09:52;98697.50;;;-0.76;89.34
9139;BME280;4604;48.616;9.548;2023-02-11T06:12:19;98703.50;;;-0.73;88.63
9139;BME280;4604;48.616;9.548;2023-02-11T06:14:46;98696.00;;;-0.91;89.71
9139;BME280;4604;48.616;9.548;2023-02-11T06:17:12;98699.50;;;-0.92;89.96
9139;BME280;4604;48.616;9.548;2023-02-11T06:19:39;98688.25;;;-0.93;88.52
9139;BME280;4604;48.616;9.548;2023-02-11T06:22:06;98703.06;;;-0.99;88.88
9139;BME280;4604;48.616;9.548;2023-02-11T06:24:34;98707.53;;;-1.11;90.05
9139;BME280;4604;48.616;9.548;2023-02-11T06:27:02;98726.59;;;-1.15;90.21
9139;BME280;4604;48.616;9.548;2023-02-11T06:29:28;98725.06;;;-1.28;91.19
9139;BME280;4604;48.616;9.548;2023-02-11T06:31:55;98724.09;;;-1.19;90.58
9139;BME280;4604;48.616;9.548;2023-02-11T06:34:21;98723.31;;;-1.27;91.30
9139;BME280;4604;48.616;9.548;2023-02-11T06:36:48;98718.97;;;-1.25;91.54
9139;BME280;4604;48.616;9.548;2023-02-11T06:39:15;98719.72;;;-1.17;91.10
9139;BME280;4604;48.616;9.548;2023-02-11T06:41:43;98730.00;;;-1.11;90.44
9139;BME280;4604;48.616;9.548;2023-02-11T06:44:09;98738.69;;;-1.14;90.81
9139;BME280;4604;48.616;9.548;2023-02-11T06:46:36;98740.38;;;-1.13;90.91
9139;BME280;4604;48.616;9.548;2023-02-11T06:49:02;98744.72;;;-1.15;91.25
9139;BME280;4604;48.616;9.548;2023-02-11T06:51:29;98744.78;;;-1.18;91.35
9139;BME280;4604;48.616;9.548;2023-02-11T06:53:55;98745.59;;;-1.14;91.27
9139;BME280;4604;48.616;9.548;2023-02-11T06:56:22;98741.28;;;-1.15;91.05
9139;BME280;4604;48.616;9.548;2023-02-11T06:58:53;98744.72;;;-1.13;91.35
9139;BME280;4604;48.616;9.548;2023-02-11T07:01:21;98734.44;;;-1.19;91.27
9139;BME280;4604;48.616;9.548;2023-02-11T07:03:48;98745.53;;;-1.10;91.15
9139;BME280;4604;48.616;9.548;2023-02-11T07:06:16;98736.81;;;-1.04;90.99
9139;BME280;4604;48.616;9.548;2023-02-11T07:08:45;98751.44;;;-1.00;91.26
9139;BME280;4604;48.616;9.548;2023-02-11T07:11:13;98748.75;;;-0.94;91.94
9139;BME280;4604;48.616;9.548;2023-02-11T07:13:41;98744.34;;;-0.89;91.86
9139;BME280;4604;48.616;9.548;2023-02-11T07:16:11;98752.03;;;-0.82;91.85
9139;BME280;4604;48.616;9.548;2023-02-11T07:18:38;98752.00;;;-0.81;91.44
9139;BME280;4604;48.616;9.548;2023-02-11T07:21:06;98749.34;;;-0.76;91.50
9139;BME280;4604;48.616;9.548;2023-02-11T07:23:33;98749.28;;;-0.72;91.64
9139;BME280;4604;48.616;9.548;2023-02-11T07:26:02;98756.97;;;-0.67;91.06
9139;BME280;4604;48.616;9.548;2023-02-11T07:28:28;98743.81;;;-0.56;90.04
9139;BME280;4604;48.616;9.548;2023-02-11T07:30:55;98744.69;;;-0.56;90.30
9139;BME280;4604;48.616;9.548;2023-02-11T07:33:23;98721.41;;;-0.59;89.77
9139;BME280;4604;48.616;9.548;2023-02-11T07:35:50;98724.53;;;-0.40;90.01
9139;BME280;4604;48.616;9.548;2023-02-11T07:38:16;98723.56;;;-0.34;90.07
9139;BME280;4604;48.616;9.548;2023-02-11T07:40:43;98718.28;;;-0.28;89.57
9139;BME280;4604;48.616;9.548;2023-02-11T07:43:09;98707.75;;;-0.20;89.39
9139;BME280;4604;48.616;9.548;2023-02-11T07:45:37;98708.41;;;-0.09;88.92
9139;BME280;4604;48.616;9.548;2023-02-11T07:48:04;98709.19;;;-0.06;88.37
9139;BME280;4604;48.616;9.548;2023-02-11T07:50:32;98714.38;;;-0.04;87.82
9139;BME280;4604;48.616;9.548;2023-02-11T07:52:59;98723.00;;;-0.04;87.27
9139;BME280;4604;48.616;9.548;2023-02-11T07:55:25;98735.75;;;0.07;85.65
9139;BME280;4604;48.616;9.548;2023-02-11T07:57:52;98746.13;;;0.10;85.19
9139;BME280;4604;48.616;9.548;2023-02-11T08:00:19;98757.97;;;0.24;83.61
9139;BME280;4604;48.616;9.548;2023-02-11T08:02:45;98754.53;;;0.21;83.20
9139;BME280;4604;48.616;9.548;2023-02-11T08:05:12;98747.41;;;0.31;83.90
9139;BME280;4604;48.616;9.548;2023-02-11T08:07:40;98729.63;;;0.55;82.80
9139;BME280;4604;48.616;9.548;2023-02-11T08:10:07;98741.34;;;0.73;81.79
9139;BME280;4604;48.616;9.548;2023-02-11T08:12:34;98738.50;;;0.85;80.18
9139;BME280;4604;48.616;9.548;2023-02-11T08:15:00;98750.34;;;0.97;79.34
9139;BME280;4604;48.616;9.548;2023-02-11T08:17:27;98754.72;;;0.95;78.36
9139;BME280;4604;48.616;9.548;2023-02-11T08:19:53;98739.03;;;0.99;78.52
9139;BME280;4604;48.616;9.548;2023-02-11T08:22:20;98733.66;;;1.07;78.25
9139;BME280;4604;48.616;9.548;2023-02-11T08:24:48;98728.16;;;1.19;78.94
9139;BME280;4604;48.616;9.548;2023-02-11T08:27:15;98714.41;;;1.16;77.91
9139;BME280;4604;48.616;9.548;2023-02-11T08:29:41;98732.28;;;1.30;77.61
9139;BME280;4604;48.616;9.548;2023-02-11T08:32:08;98735.84;;;1.25;78.02
9139;BME280;4604;48.616;9.548;2023-02-11T08:34:35;98735.81;;;1.27;78.35
9139;BME280;4604;48.616;9.548;2023-02-11T08:37:02;98737.50;;;1.28;77.22
9139;BME280;4604;48.616;9.548;2023-02-11T08:39:28;98740.09;;;1.30;76.84
9139;BME280;4604;48.616;9.548;2023-02-11T08:41:56;98737.63;;;1.22;77.17
9139;BME280;4604;48.616;9.548;2023-02-11T08:44:23;98746.84;;;1.37;77.09
9139;BME280;4604;48.616;9.548;2023-02-11T08:46:51;98764.06;;;1.41;77.07
9139;BME280;4604;48.616;9.548;2023-02-11T08:49:18;98759.72;;;1.41;76.93
9139;BME280;4604;48.616;9.548;2023-02-11T08:51:45;98761.44;;;1.42;76.64
9139;BME280;4604;48.616;9.548;2023-02-11T08:54:12;98753.53;;;1.47;77.12
9139;BME280;4604;48.616;9.548;2023-02-11T08:56:39;98751.59;;;1.54;76.35
9139;BME280;4604;48.616;9.548;2023-02-11T08:59:09;98732.81;;;1.42;77.53
9139;BME280;4604;48.616;9.548;2023-02-11T09:01:37;98737.63;;;1.59;78.24
9139;BME280;4604;48.616;9.548;2023-02-11T09:04:03;98728.25;;;1.85;81.91
9139;BME280;4604;48.616;9.548;2023-02-11T09:06:30;98733.19;;;1.96;81.27
9139;BME280;4604;48.616;9.548;2023-02-11T09:08:57;98732.16;;;2.03;80.07
9139;BME280;4604;48.616;9.548;2023-02-11T09:11:27;98732.09;;;2.04;79.56
9139;BME280;4604;48.616;9.548;2023-02-11T09:13:54;98734.69;;;2.04;78.70
9139;BME280;4604;48.616;9.548;2023-02-11T09:16:23;98723.31;;;2.07;78.29
9139;BME280;4604;48.616;9.548;2023-02-11T09:18:51;98713.72;;;2.09;77.62
9139;BME280;4604;48.616;9.548;2023-02-11T09:21:18;98708.41;;;2.13;77.04
9139;BME280;4604;48.616;9.548;2023-02-11T09:23:45;98716.19;;;2.15;77.40
9139;BME280;4604;48.616;9.548;2023-02-11T09:26:15;98718.47;;;2.26;77.57
9139;BME280;4604;48.616;9.548;2023-02-11T09:28:42;98712.38;;;2.27;76.18
9139;BME280;4604;48.616;9.548;2023-02-11T09:31:10;98714.34;;;2.48;76.21
9139;BME280;4604;48.616;9.548;2023-02-11T09:33:40;98708.50;;;2.70;74.85
9139;BME280;4604;48.616;9.548;2023-02-11T09:36:13;98700.03;;;2.91;74.48
9139;BME280;4604;48.616;9.548;2023-02-11T09:38:40;98702.16;;;3.07;73.54
9139;BME280;4604;48.616;9.548;2023-02-11T09:41:22;98698.19;;;3.21;72.74
9139;BME280;4604;48.616;9.548;2023-02-11T09:43:53;98702.97;;;3.35;71.16
9139;BME280;4604;48.616;9.548;2023-02-11T09:46:20;98698.41;;;3.42;69.63
9139;BME280;4604;48.616;9.548;2023-02-11T09:48:52;98699.66;;;3.57;68.79
9139;BME280;4604;48.616;9.548;2023-02-11T09:51:27;98701.00;;;3.69;68.79
9139;BME280;4604;48.616;9.548;2023-02-11T09:54:03;98697.63;;;3.65;68.07
9139;BME280;4604;48.616;9.548;2023-02-11T09:56:31;98701.78;;;3.71;67.31
9139;BME280;4604;48.616;9.548;2023-02-11T09:58:57;98690.22;;;3.78;66.93
9139;BME280;4604;48.616;9.548;2023-02-11T10:01:30;98703.03;;;4.09;66.77
9139;BME280;4604;48.616;9.548;2023-02-11T10:04:06;98710.97;;;4.07;67.03
9139;BME280;4604;48.616;9.548;2023-02-11T10:06:40;98724.94;;;4.30;66.79
9139;BME280;4604;48.616;9.548;2023-02-11T10:09:42;98724.44;;;4.44;66.56
9139;BME280;4604;48.616;9.548;2023-02-11T10:12:22;98730.75;;;4.38;66.35
9139;BME280;4604;48.616;9.548;2023-02-11T10:15:20;98724.34;;;4.47;66.15
9139;BME280;4604;48.616;9.548;2023-02-11T10:18:17;98718.97;;;4.50;66.98
9139;BME280;4604;48.616;9.548;2023-02-11T10:21:02;98709.63;;;4.44;67.49
9139;BME280;4604;48.616;9.548;2023-02-11T10:23:35;98713.28;;;4.39;67.00
9139;BME280;4604;48.616;9.548;2023-02-11T10:26:10;98722.72;;;4.19;69.02
9139;BME280;4604;48.616;9.548;2023-02-11T10:28:39;98714.03;;;4.19;69.63
9139;BME280;4604;48.616;9.548;2023-02-11T10:31:10;98719.03;;;4.00;70.43
9139;BME280;4604;48.616;9.548;2023-02-11T10:33:43;98720.22;;;3.91;70.68
9139;BME280;4604;48.616;9.548;2023-02-11T10:36:14;98725.22;;;3.97;71.09
9139;BME280;4604;48.616;9.548;2023-02-11T10:38:42;98722.00;;;3.91;71.29
9139;BME280;4604;48.616;9.548;2023-02-11T10:41:09;98722.41;;;3.78;71.70
9139;BME280;4604;48.616;9.548;2023-02-11T10:43:40;98725.03;;;3.78;71.49
9139;BME280;4604;48.616;9.548;2023-02-11T10:46:16;98723.41;;;3.74;71.76
9139;BME280;4604;48.616;9.548;2023-02-11T10:48:45;98729.25;;;3.56;72.94
9139;BME280;4604;48.616;9.548;2023-02-11T10:51:19;98718.03;;;3.79;71.98
9139;BME280;4604;48.616;9.548;2023-02-11T10:53:48;98724.06;;;3.81;71.93
9139;BME280;4604;48.616;9.548;2023-02-11T10:56:21;98719.75;;;3.80;72.51
9139;BME280;4604;48.616;9.548;2023-02-11T10:58:58;98717.84;;;4.10;71.82
9139;BME280;4604;48.616;9.548;2023-02-11T11:01:39;98706.53;;;4.33;70.46
9139;BME280;4604;48.616;9.548;2023-02-11T11:04:31;98711.47;;;4.41;70.79
9139;BME280;4604;48.616;9.548;2023-02-11T11:07:12;98717.03;;;4.79;68.57
9139;BME280;4604;48.616;9.548;2023-02-11T11:09:45;98693.53;;;4.77;68.02
9139;BME280;4604;48.616;9.548;2023-02-11T11:12:24;98698.16;;;4.92;66.93
9139;BME280;4604;48.616;9.548;2023-02-11T11:14:54;98700.03;;;4.90;67.31
9139;BME280;4604;48.616;9.548;2023-02-11T11:17:20;98695.56;;;4.92;66.96
9139;BME280;4604;48.616;9.548;2023-02-11T11:19:47;98700.69;;;5.18;66.29
9139;BME280;4604;48.616;9.548;2023-02-11T11:22:20;98700.84;;;5.35;65.23
9139;BME280;4604;48.616;9.548;2023-02-11T11:24:47;98699.25;;;5.31;64.68
9139;BME280;4604;48.616;9.548;2023-02-11T11:27:22;98690.56;;;5.30;65.95
9139;BME280;4604;48.616;9.548;2023-02-11T11:29:51;98690.38;;;5.55;64.33
9139;BME280;4604;48.616;9.548;2023-02-11T11:32:20;98685.16;;;5.55;64.68
9139;BME280;4604;48.616;9.548;2023-02-11T11:34:50;98677.38;;;5.54;65.17
9139;BME280;4604;48.616;9.548;2023-02-11T11:37:26;98664.66;;;5.65;65.24
9139;BME280;4604;48.616;9.548;2023-02-11T11:39:56;98669.91;;;5.86;64.80
9139;BME280;4604;48.616;9.548;2023-02-11T11:42:26;98675.50;;;5.98;64.60
9139;BME280;4604;48.616;9.548;2023-02-11T11:44:57;98671.28;;;6.15;64.39
9139;BME280;4604;48.616;9.548;2023-02-11T11:47:31;98664.06;;;6.20;63.88
9139;BME280;4604;48.616;9.548;2023-02-11T11:50:19;98666.19;;;6.31;63.53
9139;BME280;4604;48.616;9.548;2023-02-11T11:52:57;98668.25;;;6.43;63.34
9139;BME280;4604;48.616;9.548;2023-02-11T11:55:30;98666.69;;;6.58;63.57
9139;BME280;4604;48.616;9.548;2023-02-11T11:57:58;98654.22;;;6.63;63.85
9139;BME280;4604;48.616;9.548;2023-02-11T12:00:27;98658.53;;;6.83;62.45
9139;BME280;4604;48.616;9.548;2023-02-11T12:03:11;98660.41;;;6.98;62.75
9139;BME280;4604;48.616;9.548;2023-02-11T12:05:50;98657.31;;;6.90;63.30
9139;BME280;4604;48.616;9.548;2023-02-11T12:08:25;98655.94;;;7.00;60.86
9139;BME280;4604;48.616;9.548;2023-02-11T12:11:07;98652.00;;;7.09;59.61
9139;BME280;4604;48.616;9.548;2023-02-11T12:13:45;98650.72;;;6.81;60.27
9139;BME280;4604;48.616;9.548;2023-02-11T12:16:23;98662.84;;;6.84;61.26
9139;BME280;4604;48.616;9.548;2023-02-11T12:19:38;98659.09;;;7.07;58.96
9139;BME280;4604;48.616;9.548;2023-02-11T12:22:10;98662.84;;;7.20;57.87
9139;BME280;4604;48.616;9.548;2023-02-11T12:24:50;98652.19;;;7.41;58.55
9139;BME280;4604;48.616;9.548;2023-02-11T12:27:25;98665.09;;;7.63;57.74
9139;BME280;4604;48.616;9.548;2023-02-11T12:30:02;98656.59;;;7.75;57.87
9139;BME280;4604;48.616;9.548;2023-02-11T12:32:38;98660.63;;;8.15;56.20
9139;BME280;4604;48.616;9.548;2023-02-11T12:35:26;98659.78;;;8.15;55.14
9139;BME280;4604;48.616;9.548;2023-02-11T12:38:20;98658.81;;;8.00;55.80
9139;BME280;4604;48.616;9.548;2023-02-11T12:41:00;98661.97;;;8.07;55.65
9139;BME280;4604;48.616;9.548;2023-02-11T12:43:33;98662.84;;;8.07;55.44
9139;BME280;4604;48.616;9.548;2023-02-11T12:46:23;98649.31;;;7.98;55.68
9139;BME280;4604;48.616;9.548;2023-02-11T12:52:05;98645.41;;;7.71;55.74
9139;BME280;4604;48.616;9.548;2023-02-11T12:54:38;98637.53;;;7.71;56.41
9139;BME280;4604;48.616;9.548;2023-02-11T12:57:16;98640.81;;;7.75;57.31
9139;BME280;4604;48.616;9.548;2023-02-11T12:59:50;98642.28;;;7.98;55.68
9139;BME280;4604;48.616;9.548;2023-02-11T13:02:27;98640.16;;;7.71;55.61
9139;BME280;4604;48.616;9.548;2023-02-11T13:04:58;98634.94;;;7.87;55.36
9139;BME280;4604;48.616;9.548;2023-02-11T13:07:30;98635.47;;;7.94;55.65
9139;BME280;4604;48.616;9.548;2023-02-11T13:10:03;98632.63;;;7.81;55.04
9139;BME280;4604;48.616;9.548;2023-02-11T13:12:34;98636.44;;;7.76;55.73
9139;BME280;4604;48.616;9.548;2023-02-11T13:15:19;98633.78;;;7.93;54.98
9139;BME280;4604;48.616;9.548;2023-02-11T13:17:54;98633.06;;;7.89;55.09
9139;BME280;4604;48.616;9.548;2023-02-11T13:20:31;98635.56;;;7.75;54.55
9139;BME280;4604;48.616;9.548;2023-02-11T13:23:07;98636.25;;;7.96;54.82
9139;BME280;4604;48.616;9.548;2023-02-11T13:25:42;98634.56;;;7.95;54.71
9139;BME280;4604;48.616;9.548;2023-02-11T13:28:24;98626.31;;;7.85;55.90
9139;BME280;4604;48.616;9.548;2023-02-11T13:30:53;98618.13;;;7.74;56.29
9139;BME280;4604;48.616;9.548;2023-02-11T13:33:32;98623.53;;;8.04;54.84
9139;BME280;4604;48.616;9.548;2023-02-11T13:36:19;98611.38;;;7.86;55.51
9139;BME280;4604;48.616;9.548;2023-02-11T13:38:56;98607.63;;;7.90;55.99
9139;BME280;4604;48.616;9.548;2023-02-11T13:41:27;98614.78;;;8.04;56.24
9139;BME280;4604;48.616;9.548;2023-02-11T13:44:02;98609.19;;;7.94;54.67
9139;BME280;4604;48.616;9.548;2023-02-11T13:46:47;98611.66;;;7.80;54.90
9139;BME280;4604;48.616;9.548;2023-02-11T13:49:19;98610.00;;;7.94;55.20
9139;BME280;4604;48.616;9.548;2023-02-11T13:51:47;98608.69;;;8.03;55.14
9139;BME280;4604;48.616;9.548;2023-02-11T13:54:24;98610.19;;;8.25;54.69
9139;BME280;4604;48.616;9.548;2023-02-11T14:00:41;98607.53;;;8.25;54.83